createdAt,value
2022-12-12T00:01:37.335Z,83.34
2022-12-12T00:06:34.032Z,84.27
2022-12-12T00:11:31.449Z,84.82
2022-12-12T00:16:28.183Z,83.26
2022-12-12T00:21:27.065Z,82.97
2022-12-12T00:26:25.214Z,81.86
2022-12-12T00:31:23.952Z,82.86
2022-12-12T00:36:21.859Z,82.88
2022-12-12T00:41:19.246Z,82.69
2022-12-12T00:46:16.445Z,81.69
2022-12-12T00:51:17.085Z,84.18
2022-12-12T00:56:17.550Z,83.35
2022-12-12T01:01:15.885Z,84.24
2022-12-12T01:06:12.635Z,83.92
2022-12-12T01:11:09.785Z,83.40
2022-12-12T01:16:08.336Z,84.57
2022-12-12T01:21:08.328Z,83.82
2022-12-12T01:26:06.890Z,83.89
2022-12-12T01:31:03.732Z,84.06
2022-12-12T01:36:03.132Z,84.35
2022-12-12T01:41:00.581Z,83.93
2022-12-12T01:46:30.581Z,84.19
2022-12-12T01:51:27.934Z,83.89
2022-12-12T01:56:27.689Z,83.08
2022-12-12T02:01:25.320Z,82.64
2022-12-12T02:06:24.398Z,81.66
2022-12-12T02:11:21.238Z,82.97
2022-12-12T02:16:26.244Z,83.01
2022-12-12T02:21:24.781Z,83.99
2022-12-12T02:26:42.943Z,82.86
2022-12-12T02:31:46.480Z,82.56
2022-12-12T02:36:48.616Z,80.95
2022-12-12T02:41:51.169Z,80.87
2022-12-12T02:46:54.703Z,80.29
2022-12-12T02:51:52.517Z,79.13
2022-12-12T02:56:51.132Z,79.57
2022-12-12T03:01:54.037Z,78.88
2022-12-12T03:07:28.272Z,78.66
2022-12-12T03:12:31.564Z,78.92
2022-12-12T03:17:32.665Z,78.63
2022-12-12T03:22:33.235Z,78.93
2022-12-12T03:27:31.760Z,80.41
2022-12-12T03:32:30.732Z,81.87
2022-12-12T03:37:31.243Z,82.64
2022-12-12T03:42:30.455Z,83.16
2022-12-12T03:47:30.096Z,83.39
2022-12-12T03:52:30.785Z,83.38
2022-12-12T03:57:31.210Z,82.83
2022-12-12T04:02:32.758Z,81.20
2022-12-12T04:07:32.776Z,81.17
2022-12-12T04:12:51.934Z,80.91
2022-12-12T04:17:58.400Z,80.69
2022-12-12T04:23:15.206Z,80.49
2022-12-12T04:28:12.443Z,78.97
2022-12-12T04:33:12.235Z,80.03
2022-12-12T04:38:10.826Z,78.75
2022-12-12T04:43:10.312Z,77.64
2022-12-12T04:48:09.374Z,77.29
2022-12-12T04:53:18.146Z,76.52
2022-12-12T04:58:16.960Z,76.19
2022-12-12T05:03:17.912Z,76.24
2022-12-12T05:08:19.930Z,77.12
2022-12-12T05:13:18.317Z,77.15
2022-12-12T05:18:15.082Z,77.51
2022-12-12T05:23:11.830Z,76.83
2022-12-12T05:28:08.766Z,77.41
2022-12-12T05:33:06.186Z,77.34
2022-12-12T05:38:04.272Z,75.77
2022-12-12T05:43:03.477Z,76.54
2022-12-12T05:48:00.664Z,76.81
2022-12-12T05:52:58.762Z,77.40
2022-12-12T05:57:55.800Z,75.81
2022-12-12T06:02:52.985Z,75.82
2022-12-12T06:07:51.078Z,75.25
2022-12-12T06:12:51.184Z,73.77
2022-12-12T06:17:50.786Z,74.06
2022-12-12T06:22:53.428Z,73.86
2022-12-12T06:27:54.002Z,73.37
2022-12-12T06:32:51.305Z,73.67
2022-12-12T06:37:49.835Z,74.03
2022-12-12T06:42:48.833Z,73.43
2022-12-12T06:47:46.457Z,73.08
2022-12-12T06:52:45.372Z,73.19
2022-12-12T06:57:45.365Z,73.31
2022-12-12T07:02:44.576Z,73.35
2022-12-12T07:07:42.987Z,74.00
2022-12-12T07:12:40.061Z,72.68
2022-12-12T07:17:51.177Z,72.97
2022-12-12T07:22:51.348Z,71.42
2022-12-12T07:27:51.332Z,71.35
2022-12-12T07:33:00.401Z,70.99
2022-12-12T07:38:02.664Z,70.43
2022-12-12T07:43:02.826Z,70.67
2022-12-12T07:48:03.074Z,70.23
2022-12-12T07:53:00.942Z,70.59
2022-12-12T07:57:58.217Z,68.74
2022-12-12T08:02:55.322Z,69.75
2022-12-12T08:07:52.642Z,71.35
2022-12-12T08:12:54.947Z,70.80
2022-12-12T08:18:11.812Z,71.82
2022-12-12T08:23:16.836Z,73.78
2022-12-12T08:28:16.494Z,72.26
2022-12-12T08:33:15.030Z,72.99
2022-12-12T08:38:17.994Z,72.97
2022-12-12T08:43:25.273Z,72.91
2022-12-12T08:48:25.822Z,73.86
2022-12-12T08:53:23.139Z,72.83
2022-12-12T08:58:21.630Z,72.26
2022-12-12T09:03:27.701Z,71.69
2022-12-12T09:08:39.511Z,71.79
2022-12-12T09:13:36.819Z,71.30
2022-12-12T09:18:40.844Z,70.59
2022-12-12T09:23:54.353Z,71.83
2022-12-12T09:28:54.904Z,72.44
2022-12-12T09:33:53.423Z,71.95
2022-12-12T09:38:50.596Z,71.83
2022-12-12T09:44:00.461Z,72.13
2022-12-12T09:49:22.714Z,72.16
2022-12-12T09:54:21.413Z,72.47
2022-12-12T09:59:25.004Z,72.19
2022-12-12T10:04:28.253Z,72.07
2022-12-12T10:09:36.719Z,71.37
2022-12-12T10:14:36.139Z,72.22
2022-12-12T10:19:35.378Z,72.54
2022-12-12T10:24:51.782Z,72.27
2022-12-12T10:29:49.154Z,72.48
2022-12-12T10:34:52.348Z,71.09
2022-12-12T10:40:00.729Z,70.55
2022-12-12T10:45:03.792Z,70.46
2022-12-12T10:50:14.043Z,70.11
2022-12-12T10:55:18.932Z,71.44
2022-12-12T11:00:35.125Z,70.83
2022-12-12T11:05:36.476Z,70.89
2022-12-12T11:16:48.729Z,72.71
2022-12-12T11:21:48.308Z,72.24
2022-12-12T11:26:55.895Z,71.57
2022-12-12T11:31:56.422Z,68.85
2022-12-12T11:36:55.694Z,68.35
2022-12-12T11:42:04.046Z,68.94
2022-12-12T11:47:19.542Z,69.26
2022-12-12T11:52:18.762Z,68.72
2022-12-12T11:57:22.583Z,67.72
2022-12-12T12:02:33.654Z,68.40
2022-12-12T12:07:52.576Z,68.53
2022-12-12T12:13:05.714Z,67.79
2022-12-12T12:18:28.277Z,68.99
2022-12-12T12:23:29.367Z,68.82
2022-12-12T12:28:44.878Z,67.87
2022-12-12T12:34:00.120Z,68.14
2022-12-12T12:39:03.701Z,65.24
2022-12-12T12:44:14.189Z,64.43
2022-12-12T12:49:16.378Z,64.74
2022-12-12T12:54:25.634Z,64.84
2022-12-12T12:59:29.492Z,65.03
2022-12-12T13:04:29.431Z,66.25
2022-12-12T13:09:31.072Z,65.11
2022-12-12T13:14:40.104Z,64.27
2022-12-12T13:19:41.843Z,63.85
2022-12-12T13:24:45.547Z,65.13
2022-12-12T13:29:57.517Z,64.35
2022-12-12T13:35:00.937Z,64.32
2022-12-12T13:40:07.989Z,64.09
2022-12-12T13:45:48.227Z,64.67
2022-12-12T13:51:09.043Z,64.85
2022-12-12T13:56:21.000Z,65.85
2022-12-12T14:01:43.921Z,66.38
2022-12-12T14:06:41.188Z,66.23
2022-12-12T14:17:59.267Z,68.06
2022-12-12T14:23:21.925Z,69.05
2022-12-12T14:28:22.178Z,69.16
2022-12-12T14:33:42.941Z,68.32
2022-12-12T14:38:47.722Z,70.65
2022-12-12T14:44:37.374Z,70.83
2022-12-12T14:49:16.036Z,70.85
2022-12-12T14:54:23.065Z,70.08
2022-12-12T14:59:23.095Z,69.48
2022-12-12T15:04:21.724Z,71.43
2022-12-12T15:09:26.233Z,70.40
2022-12-12T15:14:25.049Z,71.53
2022-12-12T15:19:24.391Z,71.35
2022-12-12T15:24:23.010Z,70.65
2022-12-12T15:29:23.942Z,71.49
2022-12-12T15:34:41.754Z,72.27
2022-12-12T15:39:40.723Z,71.75
2022-12-12T15:44:42.299Z,73.35
2022-12-12T15:49:48.021Z,72.47
2022-12-12T15:54:52.040Z,73.38
2022-12-12T15:59:53.873Z,73.47
2022-12-12T16:05:00.866Z,73.48
2022-12-12T16:09:59.228Z,72.64
2022-12-12T16:14:57.082Z,72.70
2022-12-12T16:19:54.982Z,73.03
2022-12-12T16:24:52.648Z,73.16
2022-12-12T16:29:49.777Z,73.42
2022-12-12T16:34:47.349Z,73.21
2022-12-12T16:39:46.922Z,74.92
2022-12-12T16:44:44.290Z,75.96
2022-12-12T16:49:41.249Z,76.19
2022-12-12T16:54:41.084Z,74.08
2022-12-12T16:59:38.543Z,75.29
2022-12-12T17:04:36.353Z,76.35
2022-12-12T17:09:41.083Z,76.79
2022-12-12T17:14:39.017Z,76.22
2022-12-12T17:19:36.025Z,78.66
2022-12-12T17:24:36.073Z,80.36
2022-12-12T17:29:33.561Z,81.84
2022-12-12T17:34:31.035Z,82.67
2022-12-12T17:39:27.788Z,84.08
2022-12-12T17:44:24.655Z,84.41
2022-12-12T17:49:21.553Z,85.64
2022-12-12T17:54:21.486Z,88.13
2022-12-12T17:59:18.529Z,88.53
2022-12-12T18:04:15.217Z,90.95
2022-12-12T18:09:13.154Z,90.45
2022-12-12T18:14:14.970Z,92.01
2022-12-12T18:19:14.307Z,91.21
2022-12-12T18:24:13.118Z,89.15
2022-12-12T18:29:14.322Z,90.04
2022-12-12T18:34:11.698Z,90.15
2022-12-12T18:39:13.696Z,91.32
2022-12-12T18:44:27.621Z,90.71
2022-12-12T18:49:49.873Z,91.39
2022-12-12T18:54:59.954Z,91.07
2022-12-12T19:00:30.010Z,91.73
2022-12-12T19:05:30.647Z,91.71
2022-12-12T19:10:34.854Z,92.14
2022-12-12T19:15:34.144Z,90.88
2022-12-12T19:20:33.616Z,90.36
2022-12-12T19:25:36.306Z,92.12
2022-12-12T19:30:39.202Z,93.46
2022-12-12T19:35:37.151Z,94.00
2022-12-12T19:40:34.193Z,94.62
2022-12-12T19:45:31.962Z,93.63
2022-12-12T19:50:29.894Z,94.13
2022-12-12T19:55:27.086Z,96.24
2022-12-12T20:00:25.495Z,95.17
2022-12-12T20:05:22.406Z,93.55
2022-12-12T20:10:19.935Z,94.34
2022-12-12T20:15:17.049Z,96.41
2022-12-12T20:20:14.129Z,97.15
2022-12-12T20:25:12.637Z,97.28
2022-12-12T20:30:12.094Z,97.22
2022-12-12T20:35:09.711Z,93.84
2022-12-12T20:40:07.448Z,93.05
2022-12-12T20:45:04.621Z,94.44
2022-12-12T20:50:02.014Z,95.28
2022-12-12T20:54:58.811Z,95.81
2022-12-12T20:59:55.353Z,95.40
2022-12-12T21:04:53.920Z,96.09
2022-12-12T21:09:53.826Z,96.22
2022-12-12T21:14:50.831Z,96.64
2022-12-12T21:19:47.538Z,96.88
2022-12-12T21:24:44.202Z,97.40
2022-12-12T21:29:41.694Z,97.71
2022-12-12T21:34:40.008Z,97.74
2022-12-12T21:39:37.340Z,95.97
2022-12-12T21:44:34.679Z,95.68
2022-12-12T21:49:32.810Z,95.31
2022-12-12T21:54:30.387Z,94.87
2022-12-12T21:59:27.549Z,95.09
2022-12-12T22:04:24.837Z,93.20
2022-12-12T22:09:22.390Z,93.42
2022-12-12T22:14:20.489Z,94.04
2022-12-12T22:19:17.979Z,94.44
2022-12-12T22:24:19.057Z,92.95
2022-12-12T22:29:17.029Z,93.59
2022-12-12T22:34:15.689Z,93.34
2022-12-12T22:39:14.413Z,92.47
2022-12-12T22:44:13.837Z,94.39
2022-12-12T22:49:12.206Z,93.94
2022-12-12T22:54:09.279Z,94.21
2022-12-12T22:59:06.169Z,94.39
2022-12-12T23:04:02.936Z,93.68
2022-12-12T23:09:02.627Z,93.54
2022-12-12T23:14:00.652Z,94.21
2022-12-12T23:18:57.381Z,92.83
2022-12-12T23:23:54.298Z,92.38
2022-12-12T23:28:51.779Z,92.85
2022-12-12T23:33:51.511Z,92.39
2022-12-12T23:38:48.220Z,92.74
2022-12-12T23:43:44.950Z,93.25
2022-12-12T23:48:44.501Z,91.98
2022-12-12T23:53:41.339Z,91.06
2022-12-12T23:58:37.975Z,90.21
